Time;durP1;ratioP1;P1;durP2;ratioP2;P2;SDS_P1;SDS_P2;PMS_P1;PMS_P2;Temp;Humidity;BMP_temperature;BMP_pressure;BME280_temperature;BME280_humidity;BME280_pressure;Samples;Min_cycle;Max_cycle;Signal;HPM_P1;HPM_P2
2023/07/29 00:01:54;;;;;;;0.60;0.60;;;;;;;23.19;59.27;99807.84;4514361;28;20527;-64
2023/07/29 00:04:04;;;;;;;0.60;0.60;;;;;;;23.20;59.21;99806.63;4512764;28;21077;-64
2023/07/29 00:06:15;;;;;;;0.40;0.40;;;;;;;23.03;59.07;99781.44;4512675;28;20029;-64
2023/07/29 00:08:26;;;;;;;0.70;0.60;;;;;;;23.18;59.08;99805.38;4504788;28;20533;-63
2023/07/29 00:10:37;;;;;;;0.50;0.50;;;;;;;23.21;59.23;99798.81;4513937;28;20041;-64
2023/07/29 00:12:47;;;;;;;0.47;0.47;;;;;;;23.19;59.33;99792.63;4514130;28;20088;-64
2023/07/29 00:14:58;;;;;;;0.60;0.60;;;;;;;23.20;59.58;99797.97;4516226;28;20061;-64
2023/07/29 00:17:08;;;;;;;0.75;0.50;;;;;;;23.16;59.75;99782.75;4515919;28;20056;-64
2023/07/29 00:19:20;;;;;;;0.50;0.50;;;;;;;23.20;59.60;99797.97;4516609;28;20069;-63
2023/07/29 00:21:30;;;;;;;0.50;0.50;;;;;;;23.17;59.45;99795.91;4517636;28;20117;-63
2023/07/29 00:23:41;;;;;;;0.55;0.50;;;;;;;23.21;59.69;99798.81;4516336;28;20461;-64
2023/07/29 00:25:51;;;;;;;0.50;0.50;;;;;;;23.16;59.64;99787.69;4517435;28;20065;-64
2023/07/29 00:28:01;;;;;;;0.50;0.50;;;;;;;23.19;59.77;99789.75;4500868;28;20100;-64
2023/07/29 00:30:12;;;;;;;0.60;0.60;;;;;;;23.14;59.75;99781.50;4516265;28;20070;-65
2023/07/29 00:32:22;;;;;;;0.50;0.50;;;;;;;23.18;59.38;99782.34;4517440;28;20044;-64
2023/07/29 00:34:33;;;;;;;0.50;0.50;;;;;;;23.16;60.37;99781.91;4515956;28;20057;-64
2023/07/29 00:36:43;;;;;;;0.50;0.50;;;;;;;23.20;59.89;99792.22;4516034;28;20030;-64
2023/07/29 00:38:56;;;;;;;0.47;0.47;;;;;;;23.19;60.15;99784.81;4517657;28;20034;-64
2023/07/29 00:41:08;;;;;;;0.60;0.60;;;;;;;23.21;60.10;99788.09;4505702;28;20156;-63
2023/07/29 00:43:19;;;;;;;0.57;0.57;;;;;;;23.19;60.13;99784.00;4501806;28;20030;-64
2023/07/29 00:45:31;;;;;;;0.60;0.60;;;;;;;23.17;60.29;99780.69;4488887;28;20038;-64
2023/07/29 00:47:43;;;;;;;0.47;0.47;;;;;;;23.22;60.38;99791.81;4497847;28;21410;-64
2023/07/29 00:49:53;;;;;;;0.57;0.57;;;;;;;23.21;60.50;99790.16;4501633;28;20034;-64
2023/07/29 00:52:04;;;;;;;0.45;0.45;;;;;;;23.19;60.98;99779.06;4515659;28;20049;-64
2023/07/29 00:54:15;;;;;;;0.60;0.60;;;;;;;23.20;60.81;99779.88;4501098;28;20031;-64
2023/07/29 00:56:25;;;;;;;0.55;0.55;;;;;;;23.21;60.56;99790.16;4515738;28;20045;-64
2023/07/29 00:58:36;;;;;;;0.50;0.50;;;;;;;23.21;60.88;99788.09;4516067;28;20121;-64
2023/07/29 01:00:46;;;;;;;0.70;0.68;;;;;;;23.21;60.84;99781.53;4514307;28;20038;-63
2023/07/29 01:02:57;;;;;;;0.50;0.50;;;;;;;23.17;60.69;99780.69;4515763;28;20034;-64
2023/07/29 01:05:12;;;;;;;0.50;0.50;;;;;;;23.22;60.87;99786.88;4507367;28;20126;-64
2023/07/29 01:07:49;;;;;;;0.50;0.50;;;;;;;23.23;60.80;99779.09;4515176;28;20030;-64
2023/07/29 01:10:04;;;;;;;0.50;0.50;;;;;;;23.23;61.06;99781.97;4514597;28;20038;-64
2023/07/29 01:12:40;;;;;;;0.50;0.50;;;;;;;23.23;61.28;99784.84;4499114;28;20033;-64
2023/07/29 01:15:04;;;;;;;0.52;0.52;;;;;;;23.22;61.35;99778.25;4515102;28;20056;-64
2023/07/29 01:17:23;;;;;;;0.60;0.50;;;;;;;23.23;61.41;99779.09;4516537;28;20030;-64
2023/07/29 01:19:43;;;;;;;0.40;0.40;;;;;;;23.23;61.32;99784.84;4516975;28;20042;-64
2023/07/29 01:21:56;;;;;;;0.70;0.50;;;;;;;23.19;61.46;99779.06;4516217;28;20050;-64
2023/07/29 01:24:06;;;;;;;0.47;0.47;;;;;;;23.21;62.00;99784.41;4499581;28;20084;-65
2023/07/29 01:26:16;;;;;;;0.40;0.40;;;;;;;23.19;62.33;99781.09;4506668;28;20046;-66
2023/07/29 01:28:27;;;;;;;0.45;0.45;;;;;;;23.22;62.82;99769.63;4515196;28;20038;-67
2023/07/29 01:30:44;;;;;;;0.50;0.50;;;;;;;23.21;63.12;99767.13;4517027;28;20053;-65
2023/07/29 01:33:00;;;;;;;0.43;0.40;;;;;;;23.24;63.34;99766.31;4506421;28;20044;-65
2023/07/29 01:35:37;;;;;;;0.88;0.50;;;;;;;23.24;63.18;99770.03;4506698;28;20046;-64
2023/07/29 01:37:52;;;;;;;0.52;0.52;;;;;;;23.22;63.52;99763.84;4488406;28;20046;-64
2023/07/29 01:40:05;;;;;;;0.90;0.50;;;;;;;23.21;63.63;99770.03;4515809;28;20128;-64
2023/07/29 01:42:15;;;;;;;1.00;0.50;;;;;;;23.21;63.27;99761.38;4497340;28;20029;-64
2023/07/29 01:44:27;;;;;;;0.57;0.57;;;;;;;23.23;63.51;99756.06;4481813;28;20491;-65
2023/07/29 01:46:37;;;;;;;0.50;0.50;;;;;;;23.22;63.56;99749.47;4497379;28;20034;-64
2023/07/29 01:48:48;;;;;;;0.68;0.50;;;;;;;23.23;63.70;99761.81;4516635;28;20033;-64
2023/07/29 01:50:58;;;;;;;0.60;0.60;;;;;;;23.21;63.44;99755.63;4500762;28;20530;-64
2023/07/29 01:53:08;;;;;;;0.50;0.50;;;;;;;23.18;63.64;99750.69;4515329;28;20042;-66
2023/07/29 01:55:19;;;;;;;0.50;0.50;;;;;;;23.21;63.47;99758.50;4489116;28;20082;-64
2023/07/29 01:57:29;;;;;;;0.40;0.40;;;;;;;23.23;63.54;99756.84;4513448;28;20054;-64
2023/07/29 01:59:40;;;;;;;0.50;0.50;;;;;;;23.18;63.64;99748.59;4506591;28;20121;-64
2023/07/29 02:01:50;;;;;;;0.55;0.50;;;;;;;23.21;63.53;99758.50;4515018;28;20033;-64
2023/07/29 02:04:01;;;;;;;0.50;0.50;;;;;;;23.24;63.33;99760.56;4515188;28;20056;-64
2023/07/29 02:06:11;;;;;;;0.60;0.60;;;;;;;23.21;63.39;99752.75;4514911;28;20398;-65
2023/07/29 02:08:22;;;;;;;0.50;0.50;;;;;;;23.16;63.53;99739.56;4502063;28;20097;-64
2023/07/29 02:10:32;;;;;;;0.50;0.50;;;;;;;23.21;63.46;99744.09;4515894;28;20144;-65
2023/07/29 02:12:43;;;;;;;0.50;0.50;;;;;;;23.22;63.45;99746.56;4507721;28;20503;-64
2023/07/29 02:14:54;;;;;;;0.60;0.60;;;;;;;23.21;63.58;99744.91;4506054;28;20038;-65
2023/07/29 02:17:04;;;;;;;0.70;0.60;;;;;;;23.18;63.75;99733.41;4513402;28;20042;-64
2023/07/29 02:19:15;;;;;;;0.88;0.60;;;;;;;23.23;63.43;99736.69;4496779;28;20061;-64
2023/07/29 02:21:25;;;;;;;0.60;0.60;;;;;;;23.23;63.71;99733.03;4514158;28;20069;-64
2023/07/29 02:23:36;;;;;;;0.80;0.68;;;;;;;23.18;63.63;99727.66;4497758;28;20030;-64
2023/07/29 02:25:46;;;;;;;0.47;0.47;;;;;;;23.20;63.65;99728.88;4515122;28;20436;-63
2023/07/29 02:27:56;;;;;;;0.50;0.50;;;;;;;23.19;63.65;99721.47;4505506;28;20034;-64
2023/07/29 02:30:09;;;;;;;0.65;0.55;;;;;;;23.17;63.50;99717.34;4500884;28;20465;-63
2023/07/29 02:32:20;;;;;;;1.15;0.60;;;;;;;23.19;63.41;99721.47;4515394;28;20824;-63
2023/07/29 02:34:31;;;;;;;0.55;0.55;;;;;;;23.23;63.68;99730.13;4506099;28;21324;-64
2023/07/29 02:36:42;;;;;;;0.80;0.60;;;;;;;23.22;63.48;99720.66;4501363;28;20116;-64
2023/07/29 02:38:52;;;;;;;0.47;0.47;;;;;;;23.22;63.52;99716.97;4500711;28;20030;-64
2023/07/29 02:41:03;;;;;;;0.73;0.60;;;;;;;23.21;63.64;99712.44;4514395;28;20037;-64
2023/07/29 02:43:13;;;;;;;0.57;0.50;;;;;;;23.20;63.47;99717.38;4497973;28;20026;-64
2023/07/29 02:45:24;;;;;;;0.80;0.52;;;;;;;23.21;63.54;99723.94;4515731;28;20165;-64
2023/07/29 02:47:35;;;;;;;0.55;0.52;;;;;;;23.21;63.47;99723.94;4507173;28;20030;-64
2023/07/29 02:49:46;;;;;;;1.02;0.60;;;;;;;23.20;63.49;99728.03;4500110;28;20030;-64
2023/07/29 02:51:56;;;;;;;0.50;0.50;;;;;;;23.20;63.54;99728.88;4514245;28;20080;-65
2023/07/29 02:54:06;;;;;;;0.50;0.50;;;;;;;23.17;63.69;99721.06;4514221;28;20466;-64
2023/07/29 02:56:17;;;;;;;0.50;0.50;;;;;;;23.21;63.82;99723.94;4501089;28;20196;-64
2023/07/29 02:58:28;;;;;;;0.50;0.50;;;;;;;23.19;63.54;99727.25;4505453;28;20571;-64
2023/07/29 03:00:41;;;;;;;0.55;0.55;;;;;;;23.20;63.66;99714.47;4505161;28;20053;-64
2023/07/29 03:02:51;;;;;;;0.60;0.60;;;;;;;23.18;63.64;99711.19;4491373;28;20184;-64
2023/07/29 03:05:03;;;;;;;0.82;0.60;;;;;;;23.20;63.85;99708.72;4514352;28;20116;-64
2023/07/29 03:07:16;;;;;;;0.70;0.52;;;;;;;23.21;63.70;99706.69;4500123;28;20037;-64
2023/07/29 03:09:26;;;;;;;0.70;0.55;;;;;;;23.16;63.75;99692.69;4505659;28;20049;-63
2023/07/29 03:11:37;;;;;;;0.50;0.50;;;;;;;23.21;63.87;99709.56;4514354;28;20502;-64
2023/07/29 03:13:47;;;;;;;0.50;0.50;;;;;;;23.22;63.72;99720.66;4488940;28;20466;-63
2023/07/29 03:16:11;;;;;;;0.65;0.57;;;;;;;23.20;63.61;99711.59;4505230;28;20046;-64
2023/07/29 03:18:23;;;;;;;0.40;0.40;;;;;;;23.19;63.83;99701.34;4513704;28;20556;-64
2023/07/29 03:20:33;;;;;;;1.27;0.60;;;;;;;23.18;63.55;99701.75;4506194;28;20104;-64
2023/07/29 03:22:44;;;;;;;1.15;0.50;;;;;;;23.18;63.62;99707.50;4514530;28;20145;-64
2023/07/29 03:24:55;;;;;;;0.50;0.50;;;;;;;23.18;63.73;99704.63;4500634;28;20038;-64
2023/07/29 03:27:06;;;;;;;1.15;0.52;;;;;;;23.17;63.59;99702.94;4505501;28;20042;-64
2023/07/29 03:29:17;;;;;;;0.73;0.57;;;;;;;23.19;63.58;99698.44;4499608;28;20030;-64
2023/07/29 03:31:27;;;;;;;1.58;0.50;;;;;;;23.19;63.36;99704.22;4514588;28;20034;-64
2023/07/29 03:33:38;;;;;;;0.43;0.43;;;;;;;23.21;63.40;99704.59;4501138;28;20069;-64
2023/07/29 03:35:49;;;;;;;1.35;0.60;;;;;;;23.16;63.36;99689.81;4497190;28;20077;-65
2023/07/29 03:37:59;;;;;;;0.45;0.40;;;;;;;23.17;63.42;99688.56;4499924;28;20030;-64
2023/07/29 03:40:10;;;;;;;0.40;0.40;;;;;;;23.13;63.46;99682.81;4514048;28;21000;-64
2023/07/29 03:42:20;;;;;;;0.50;0.50;;;;;;;23.18;63.44;99684.47;4514702;28;20018;-64
2023/07/29 03:44:31;;;;;;;0.73;0.55;;;;;;;23.18;63.55;99673.75;4514047;28;20542;-64
2023/07/29 03:46:42;;;;;;;0.60;0.50;;;;;;;23.17;63.50;99680.75;4498419;28;20614;-64
2023/07/29 03:48:53;;;;;;;0.40;0.40;;;;;;;23.18;63.35;99679.50;4501076;28;20042;-64
2023/07/29 03:51:04;;;;;;;1.17;0.50;;;;;;;23.20;63.29;99681.97;4506759;28;20536;-64
2023/07/29 03:53:15;;;;;;;0.50;0.50;;;;;;;23.18;63.17;99675.81;4516621;28;20040;-66
2023/07/29 03:55:25;;;;;;;0.80;0.50;;;;;;;23.18;63.35;99675.81;4502734;28;20545;-65
2023/07/29 03:57:35;;;;;;;0.40;0.40;;;;;;;23.13;63.31;99670.47;4503469;28;20868;-67
2023/07/29 03:59:46;;;;;;;0.55;0.50;;;;;;;23.18;63.24;99679.50;4516837;28;20544;-65
2023/07/29 04:01:56;;;;;;;0.40;0.40;;;;;;;23.17;63.18;99677.03;4516561;28;20042;-66
2023/07/29 04:04:07;;;;;;;0.38;0.38;;;;;;;23.15;63.14;99673.78;4502623;28;20033;-66
2023/07/29 04:06:17;;;;;;;0.52;0.50;;;;;;;23.19;63.54;99683.22;4503477;28;20038;-65
2023/07/29 04:08:28;;;;;;;0.50;0.50;;;;;;;23.17;63.50;99685.69;4500849;28;20074;-65
2023/07/29 04:10:38;;;;;;;0.73;0.60;;;;;;;23.18;63.24;99678.72;4508660;28;20038;-65
2023/07/29 04:12:49;;;;;;;0.50;0.40;;;;;;;23.18;63.78;99681.59;4516449;28;20026;-66
2023/07/29 04:14:59;;;;;;;0.40;0.40;;;;;;;23.18;63.11;99684.47;4508320;28;20459;-66
2023/07/29 04:17:10;;;;;;;0.50;0.50;;;;;;;23.16;63.38;99682.00;4516422;28;20037;-66
2023/07/29 04:19:21;;;;;;;0.60;0.60;;;;;;;23.13;63.21;99681.97;4499662;28;20034;-65
2023/07/29 04:21:32;;;;;;;0.50;0.50;;;;;;;23.14;63.63;99677.84;4509043;28;20030;-65
2023/07/29 04:23:42;;;;;;;0.73;0.50;;;;;;;23.16;63.85;99682.00;4501600;28;20422;-65
2023/07/29 04:25:53;;;;;;;0.30;0.30;;;;;;;23.17;63.52;99682.78;4517159;28;20072;-66
2023/07/29 04:28:05;;;;;;;0.50;0.50;;;;;;;23.17;63.13;99679.91;4516614;28;20033;-65
2023/07/29 04:30:15;;;;;;;0.50;0.50;;;;;;;23.18;63.66;99684.47;4502987;28;20631;-65
2023/07/29 04:32:25;;;;;;;0.55;0.50;;;;;;;23.17;63.65;99683.63;4515834;28;20042;-65
2023/07/29 04:34:36;;;;;;;1.10;0.52;;;;;;;23.18;63.66;99672.94;4515737;28;20052;-65
2023/07/29 04:36:47;;;;;;;1.00;0.60;;;;;;;23.16;63.85;99682.00;4507198;28;20025;-65
2023/07/29 04:38:58;;;;;;;0.40;0.40;;;;;;;23.17;63.89;99683.63;4498769;28;20860;-65
2023/07/29 04:41:08;;;;;;;0.65;0.45;;;;;;;23.15;63.65;99676.66;4498324;28;20117;-65
2023/07/29 04:43:19;;;;;;;0.95;0.50;;;;;;;23.14;63.70;99672.94;4516076;28;20049;-65
2023/07/29 04:45:31;;;;;;;0.77;0.45;;;;;;;23.17;63.82;99675.00;4500342;28;20150;-65
2023/07/29 04:47:41;;;;;;;0.63;0.43;;;;;;;23.16;63.81;99676.25;4517694;28;20042;-65
2023/07/29 04:49:52;;;;;;;0.40;0.40;;;;;;;23.15;63.71;99676.66;4504550;28;20154;-65
2023/07/29 04:52:02;;;;;;;0.70;0.40;;;;;;;23.14;63.97;99677.84;4516717;28;20040;-65
2023/07/29 04:54:13;;;;;;;0.38;0.38;;;;;;;23.15;64.17;99680.31;4498147;28;20043;-66
2023/07/29 04:56:23;;;;;;;0.40;0.40;;;;;;;23.19;64.19;99681.19;4516139;28;20376;-65
2023/07/29 04:58:35;;;;;;;0.40;0.40;;;;;;;23.17;64.18;99677.88;4514980;28;20041;-65
2023/07/29 05:00:48;;;;;;;0.50;0.50;;;;;;;23.18;64.20;99684.47;4506995;28;20030;-65
2023/07/29 05:02:59;;;;;;;0.40;0.40;;;;;;;23.16;64.07;99673.34;4497864;28;20652;-65
2023/07/29 05:05:09;;;;;;;0.40;0.40;;;;;;;23.18;63.97;99682.38;4503050;28;20029;-65
2023/07/29 05:07:20;;;;;;;1.05;0.50;;;;;;;23.18;63.85;99673.75;4514578;28;20721;-65
2023/07/29 05:09:30;;;;;;;0.40;0.40;;;;;;;23.16;63.92;99675.41;4516090;28;20173;-65
2023/07/29 05:11:43;;;;;;;0.40;0.40;;;;;;;23.17;63.93;99675.00;4502637;28;20441;-66
2023/07/29 05:13:53;;;;;;;0.82;0.40;;;;;;;23.18;63.89;99678.72;4513886;28;20033;-65
2023/07/29 05:16:04;;;;;;;0.40;0.40;;;;;;;23.15;64.74;99674.56;4515510;28;20041;-65
2023/07/29 05:18:16;;;;;;;0.30;0.30;;;;;;;23.18;64.93;99678.72;4506436;28;20577;-65
2023/07/29 05:20:26;;;;;;;0.43;0.43;;;;;;;23.15;65.17;99656.50;4500856;28;20042;-65
2023/07/29 05:22:36;;;;;;;0.63;0.40;;;;;;;23.15;65.43;99656.50;4514737;28;20466;-66
2023/07/29 05:24:47;;;;;;;0.40;0.40;;;;;;;23.11;65.26;99644.13;4515761;28;20958;-65
2023/07/29 05:26:57;;;;;;;0.70;0.43;;;;;;;23.17;64.92;99654.84;4501217;28;20022;-65
2023/07/29 05:29:08;;;;;;;0.40;0.40;;;;;;;23.17;65.07;99654.00;4499240;28;20121;-65
2023/07/29 05:31:18;;;;;;;0.60;0.40;;;;;;;23.17;65.20;99648.25;4515807;28;20030;-65
2023/07/29 05:33:29;;;;;;;0.40;0.40;;;;;;;23.17;65.13;99651.13;4501250;28;20075;-65
2023/07/29 05:35:39;;;;;;;0.30;0.30;;;;;;;23.16;65.15;99658.13;4515129;28;20041;-65
2023/07/29 05:37:50;;;;;;;0.30;0.30;;;;;;;23.17;65.17;99659.78;4506794;28;20034;-65
2023/07/29 05:40:01;;;;;;;0.30;0.30;;;;;;;23.17;65.17;99665.53;4506053;28;20034;-66
2023/07/29 05:42:11;;;;;;;0.30;0.30;;;;;;;23.12;65.14;99663.88;4516006;28;20042;-65
2023/07/29 05:44:22;;;;;;;0.70;0.40;;;;;;;23.14;65.19;99657.72;4500944;28;20069;-65
2023/07/29 05:46:32;;;;;;;0.32;0.30;;;;;;;23.14;65.13;99658.53;4501812;28;20034;-66
2023/07/29 05:48:42;;;;;;;0.30;0.30;;;;;;;23.14;65.41;99672.09;4514406;28;20092;-65
2023/07/29 05:50:53;;;;;;;0.60;0.40;;;;;;;23.17;65.31;99671.28;4499753;28;20038;-65
2023/07/29 05:53:03;;;;;;;0.38;0.35;;;;;;;23.14;65.24;99666.34;4500209;28;20124;-65
2023/07/29 05:55:14;;;;;;;0.30;0.30;;;;;;;23.14;65.34;99672.94;4505306;28;20089;-65
2023/07/29 05:57:24;;;;;;;0.40;0.40;;;;;;;23.17;65.26;99674.16;4500116;28;20026;-65
2023/07/29 05:59:35;;;;;;;0.40;0.40;;;;;;;23.12;65.42;99668.81;4499694;28;20394;-65
2023/07/29 06:01:45;;;;;;;0.40;0.40;;;;;;;23.12;65.18;99669.63;4497716;28;20037;-66
2023/07/29 06:03:57;;;;;;;1.15;0.50;;;;;;;23.15;65.30;99670.88;4514963;28;20053;-66
2023/07/29 06:06:08;;;;;;;0.60;0.47;;;;;;;23.13;65.48;99674.19;4514621;28;20026;-66
2023/07/29 06:08:19;;;;;;;0.70;0.30;;;;;;;23.13;65.55;99676.22;4515349;28;20037;-66
2023/07/29 06:10:29;;;;;;;0.30;0.30;;;;;;;23.18;65.54;99684.47;4514159;28;20062;-66
2023/07/29 06:12:40;;;;;;;0.43;0.40;;;;;;;23.18;65.42;99693.09;4516514;28;20037;-65
2023/07/29 06:14:50;;;;;;;0.35;0.35;;;;;;;23.16;65.51;99692.69;4484659;28;20042;-65
2023/07/29 06:17:01;;;;;;;0.40;0.40;;;;;;;23.14;65.09;99687.31;4497892;28;20043;-66
2023/07/29 06:19:13;;;;;;;0.25;0.25;;;;;;;23.17;65.35;99691.44;4517173;28;20401;-66
2023/07/29 06:21:23;;;;;;;0.40;0.40;;;;;;;23.17;65.39;99689.38;4498036;28;20031;-65
2023/07/29 06:23:34;;;;;;;0.40;0.40;;;;;;;23.17;65.46;99685.69;4500863;28;20038;-65
2023/07/29 06:25:44;;;;;;;0.38;0.38;;;;;;;23.13;65.34;99687.72;4490514;28;20038;-65
2023/07/29 06:27:55;;;;;;;0.43;0.40;;;;;;;23.15;65.52;99694.72;4515525;28;20497;-65
2023/07/29 06:30:06;;;;;;;0.57;0.47;;;;;;;23.17;65.66;99700.06;4515087;28;20038;-65
2023/07/29 06:32:16;;;;;;;0.40;0.40;;;;;;;23.11;65.60;99684.44;4496777;28;20080;-65
2023/07/29 06:34:26;;;;;;;0.43;0.43;;;;;;;23.14;65.56;99692.25;4490332;28;20149;-65
2023/07/29 06:36:37;;;;;;;0.40;0.40;;;;;;;23.08;65.80;99680.31;4514309;28;20133;-65
2023/07/29 06:38:47;;;;;;;0.32;0.30;;;;;;;23.10;65.81;99674.97;4514293;28;20073;-66
2023/07/29 06:40:58;;;;;;;0.55;0.52;;;;;;;23.18;66.03;99684.47;4506568;28;21232;-65
2023/07/29 06:43:08;;;;;;;0.47;0.47;;;;;;;23.16;66.15;99693.50;4514715;28;21033;-65
2023/07/29 06:45:19;;;;;;;0.43;0.43;;;;;;;23.17;66.31;99692.28;4515434;28;20033;-65
2023/07/29 06:47:29;;;;;;;0.30;0.30;;;;;;;23.07;65.96;99677.84;4504934;28;20034;-65
2023/07/29 06:49:39;;;;;;;0.50;0.50;;;;;;;23.17;66.36;99706.66;4515701;28;20390;-65
2023/07/29 06:51:50;;;;;;;0.50;0.50;;;;;;;23.16;66.25;99707.06;4499770;28;20400;-66
2023/07/29 06:54:01;;;;;;;0.70;0.57;;;;;;;23.17;66.11;99712.41;4514678;28;20057;-65
2023/07/29 06:56:12;;;;;;;0.60;0.60;;;;;;;23.14;66.21;99712.41;4512496;28;20065;-65
2023/07/29 06:58:22;;;;;;;0.60;0.52;;;;;;;23.12;66.27;99721.44;4514222;28;20128;-66
2023/07/29 07:00:33;;;;;;;0.50;0.50;;;;;;;23.15;66.40;99731.34;4514822;28;20077;-65
2023/07/29 07:02:43;;;;;;;0.70;0.70;;;;;;;23.12;66.15;99726.41;4497415;28;20545;-65
2023/07/29 07:04:53;;;;;;;0.68;0.68;;;;;;;23.16;66.45;99744.50;4514709;28;20045;-65
2023/07/29 07:07:04;;;;;;;0.80;0.80;;;;;;;23.16;66.13;99750.25;4488884;28;20031;-65
2023/07/29 07:09:15;;;;;;;0.82;0.80;;;;;;;23.13;66.13;99737.50;4514812;28;20033;-65
2023/07/29 07:11:25;;;;;;;1.08;0.82;;;;;;;23.15;66.36;99742.84;4515435;28;20055;-65
2023/07/29 07:13:36;;;;;;;1.10;1.00;;;;;;;23.16;66.26;99739.56;4514164;28;20056;-65
2023/07/29 07:15:46;;;;;;;1.50;1.40;;;;;;;23.14;66.13;99735.44;4514132;28;20061;-65
2023/07/29 07:17:57;;;;;;;2.00;1.80;;;;;;;23.15;65.85;99732.16;4514932;28;20128;-66
2023/07/29 07:20:07;;;;;;;1.65;1.55;;;;;;;23.19;66.05;99740.81;4513777;28;20077;-65
2023/07/29 07:22:17;;;;;;;1.70;1.60;;;;;;;23.15;65.67;99737.09;4513417;28;20120;-65
2023/07/29 07:24:28;;;;;;;1.70;1.60;;;;;;;23.15;65.89;99742.84;4515174;28;20482;-65
2023/07/29 07:26:38;;;;;;;2.03;1.83;;;;;;;23.16;65.76;99750.25;4512714;28;20379;-65
2023/07/29 07:28:49;;;;;;;2.10;1.88;;;;;;;23.19;65.67;99766.72;4515676;28;20493;-65
2023/07/29 07:30:59;;;;;;;3.30;2.03;;;;;;;23.16;65.64;99756.00;4499080;28;20042;-64
2023/07/29 07:33:10;;;;;;;2.22;2.03;;;;;;;23.05;65.34;99737.88;4513432;28;20065;-64
2023/07/29 07:35:20;;;;;;;2.38;1.60;;;;;;;23.03;65.37;99746.91;4498688;28;20065;-65
2023/07/29 07:37:31;;;;;;;2.55;2.03;;;;;;;23.17;65.13;99764.25;4504874;28;20037;-65
2023/07/29 07:39:41;;;;;;;2.10;1.90;;;;;;;23.13;64.83;99762.59;4505024;28;20065;-65
2023/07/29 07:41:51;;;;;;;2.20;2.00;;;;;;;23.14;64.56;99755.59;4515329;28;20490;-65
2023/07/29 07:44:02;;;;;;;2.00;1.80;;;;;;;23.14;64.91;99752.69;4514878;28;20088;-65
2023/07/29 07:46:12;;;;;;;2.13;1.80;;;;;;;23.16;64.90;99762.59;4513844;28;20034;-65
2023/07/29 07:48:23;;;;;;;1.90;1.80;;;;;;;23.17;64.98;99763.41;4505049;28;20038;-65
2023/07/29 07:50:33;;;;;;;1.60;1.50;;;;;;;23.16;64.78;99761.78;4514030;28;20038;-65
2023/07/29 07:52:44;;;;;;;1.70;1.60;;;;;;;23.11;64.37;99753.53;4513365;28;20418;-65
2023/07/29 07:54:54;;;;;;;1.63;1.52;;;;;;;23.18;64.43;99762.19;4513458;28;20034;-65
2023/07/29 07:57:05;;;;;;;1.65;1.55;;;;;;;23.16;64.29;99751.09;4505264;28;20100;-65
2023/07/29 07:59:16;;;;;;;1.45;1.35;;;;;;;23.15;64.15;99755.19;4514335;28;20057;-65
2023/07/29 08:01:26;;;;;;;1.50;1.40;;;;;;;23.13;63.64;99760.53;4515412;28;20042;-65
2023/07/29 08:03:36;;;;;;;1.65;1.55;;;;;;;23.15;62.98;99757.25;4504454;28;20073;-65
2023/07/29 08:05:47;;;;;;;1.52;1.42;;;;;;;23.12;63.16;99743.66;4515600;28;20836;-65
2023/07/29 08:07:58;;;;;;;1.50;1.40;;;;;;;23.16;63.62;99756.00;4512797;28;20041;-65
2023/07/29 08:10:08;;;;;;;1.30;1.20;;;;;;;23.14;63.91;99747.78;4515186;28;20046;-65
2023/07/29 08:12:19;;;;;;;1.90;1.70;;;;;;;23.14;63.23;99744.91;4502505;28;20065;-65
2023/07/29 08:14:29;;;;;;;1.60;1.50;;;;;;;23.12;63.05;99744.47;4498868;28;20134;-65
2023/07/29 08:16:40;;;;;;;1.48;1.38;;;;;;;23.17;63.45;99751.88;4512511;28;20044;-65
2023/07/29 08:18:50;;;;;;;1.65;1.55;;;;;;;23.17;63.61;99754.78;4513838;28;20092;-65
2023/07/29 08:21:04;;;;;;;2.00;1.80;;;;;;;23.19;62.95;99749.44;4513605;28;20442;-65
2023/07/29 08:23:14;;;;;;;1.80;1.70;;;;;;;23.16;63.61;99767.53;4513219;28;20041;-65
2023/07/29 08:25:25;;;;;;;1.70;1.60;;;;;;;23.16;63.25;99761.78;4514248;28;20038;-65
2023/07/29 08:27:36;;;;;;;1.90;1.80;;;;;;;23.16;61.44;99767.53;4504668;28;20038;-65
2023/07/29 08:29:46;;;;;;;1.52;1.42;;;;;;;23.14;60.62;99769.97;4513582;28;20041;-65
2023/07/29 08:31:57;;;;;;;1.63;1.52;;;;;;;23.17;60.04;99777.81;4513131;28;20069;-65
2023/07/29 08:34:07;;;;;;;1.40;1.30;;;;;;;23.13;59.35;99769.16;4514917;28;20517;-65
2023/07/29 08:36:18;;;;;;;1.30;1.20;;;;;;;23.11;59.19;99768.75;4516485;28;20054;-65
2023/07/29 08:38:28;;;;;;;1.50;1.40;;;;;;;23.17;58.81;99786.44;4517382;28;20049;-66
2023/07/29 08:40:45;;;;;;;1.50;1.40;;;;;;;23.11;59.32;99770.78;4498905;28;20107;-65
2023/07/29 08:42:58;;;;;;;1.92;1.35;;;;;;;23.14;59.05;99767.94;4516399;28;21244;-65
2023/07/29 08:45:09;;;;;;;1.30;1.20;;;;;;;23.14;58.77;99778.63;4499876;28;20038;-65
2023/07/29 08:47:19;;;;;;;1.20;1.10;;;;;;;23.13;58.85;99774.94;4516467;28;20041;-65
2023/07/29 08:49:31;;;;;;;0.98;0.98;;;;;;;23.14;59.06;99767.94;4516578;28;20044;-65
2023/07/29 08:51:44;;;;;;;1.83;1.17;;;;;;;23.15;58.69;99768.78;4517340;28;20084;-65
2023/07/29 08:53:55;;;;;;;1.40;1.10;;;;;;;23.11;59.40;99759.28;4516390;28;20018;-65
2023/07/29 08:56:07;;;;;;;1.10;1.00;;;;;;;23.13;60.84;99768.34;4515770;28;20049;-65
2023/07/29 08:58:17;;;;;;;1.23;1.13;;;;;;;23.15;60.28;99771.66;4516696;28;20033;-65
2023/07/29 09:00:28;;;;;;;1.10;1.00;;;;;;;23.14;58.39;99778.63;4505999;28;20030;-65
2023/07/29 09:02:38;;;;;;;0.80;0.80;;;;;;;23.15;57.81;99774.53;4516247;28;20040;-65
2023/07/29 09:04:49;;;;;;;1.13;1.02;;;;;;;23.14;57.06;99782.31;4516254;28;20108;-65
2023/07/29 09:07:00;;;;;;;1.20;1.10;;;;;;;23.14;56.12;99788.09;4515130;28;20026;-65
2023/07/29 09:09:10;;;;;;;1.20;1.10;;;;;;;23.14;55.86;99784.38;4507938;28;20107;-65
2023/07/29 09:11:21;;;;;;;0.90;0.90;;;;;;;23.13;55.53;99792.19;4507814;28;20030;-65
2023/07/29 09:13:32;;;;;;;1.15;1.05;;;;;;;23.13;56.35;99791.38;4516390;28;20036;-66
2023/07/29 09:15:43;;;;;;;1.10;1.00;;;;;;;23.13;56.78;99788.50;4515668;28;20503;-65
2023/07/29 09:17:53;;;;;;;1.05;0.98;;;;;;;23.11;56.90;99788.06;4515028;28;20120;-65
2023/07/29 09:20:04;;;;;;;1.75;0.95;;;;;;;23.10;56.66;99783.53;4500361;28;20042;-65
2023/07/29 09:22:20;;;;;;;1.10;1.00;;;;;;;23.15;57.36;99797.56;4515237;28;20113;-64
2023/07/29 09:24:32;;;;;;;1.00;1.00;;;;;;;23.10;57.16;99786.41;4515165;28;20144;-65
2023/07/29 09:26:49;;;;;;;0.70;0.70;;;;;;;23.11;57.00;99783.13;4516167;28;20815;-64
2023/07/29 09:29:00;;;;;;;0.90;0.80;;;;;;;23.11;56.72;99782.31;4515576;28;20041;-65
2023/07/29 09:31:20;;;;;;;0.80;0.80;;;;;;;23.12;55.88;99783.97;4515597;28;20125;-65
2023/07/29 09:33:36;;;;;;;0.80;0.65;;;;;;;23.13;56.04;99786.44;4499683;28;21581;-65
2023/07/29 09:35:47;;;;;;;0.88;0.70;;;;;;;23.13;56.11;99780.69;4515310;28;20903;-64
2023/07/29 09:37:57;;;;;;;0.63;0.63;;;;;;;23.06;56.08;99768.28;4516376;28;20041;-65
2023/07/29 09:40:15;;;;;;;0.77;0.60;;;;;;;23.13;55.80;99794.25;4515671;28;20501;-65
2023/07/29 09:42:25;;;;;;;0.38;0.38;;;;;;;23.11;55.47;99779.44;4515393;28;20069;-65
2023/07/29 09:44:36;;;;;;;0.50;0.50;;;;;;;23.11;54.45;99783.13;4514599;28;20065;-66
2023/07/29 09:46:47;;;;;;;0.75;0.43;;;;;;;23.10;55.04;99787.22;4515742;28;20030;-64
2023/07/29 09:48:57;;;;;;;0.57;0.40;;;;;;;23.14;54.48;99787.25;4498205;28;20035;-64
2023/07/29 09:51:15;;;;;;;0.60;0.50;;;;;;;23.15;55.01;99788.91;4514756;28;20038;-65
2023/07/29 09:53:26;;;;;;;0.40;0.40;;;;;;;23.09;55.46;99774.06;4515605;28;20034;-64
2023/07/29 09:55:37;;;;;;;0.43;0.40;;;;;;;23.09;55.60;99776.13;4515489;28;20033;-65
2023/07/29 09:57:47;;;;;;;0.47;0.47;;;;;;;23.15;55.59;99774.53;4502727;28;20034;-65
2023/07/29 09:59:58;;;;;;;0.85;0.40;;;;;;;23.09;54.95;99773.25;4516539;28;20379;-65
2023/07/29 10:02:16;;;;;;;0.40;0.40;;;;;;;23.14;54.32;99788.09;4514625;28;20474;-65
2023/07/29 10:04:27;;;;;;;0.30;0.30;;;;;;;23.15;54.59;99783.97;4515825;28;20634;-65
2023/07/29 10:06:38;;;;;;;0.30;0.30;;;;;;;23.15;55.06;99780.28;4516595;28;20064;-65
2023/07/29 10:08:49;;;;;;;0.30;0.30;;;;;;;23.11;54.61;99788.91;4514907;28;20450;-65
2023/07/29 10:11:00;;;;;;;0.35;0.35;;;;;;;23.11;54.18;99777.38;4506054;28;20573;-66
2023/07/29 10:13:12;;;;;;;0.30;0.30;;;;;;;23.14;53.75;99788.09;4514689;28;20034;-65
2023/07/29 10:15:24;;;;;;;0.30;0.30;;;;;;;23.12;53.75;99786.84;4515009;28;20041;-65
2023/07/29 10:17:36;;;;;;;0.40;0.40;;;;;;;23.16;53.64;99799.19;4499946;28;20026;-65
2023/07/29 10:19:47;;;;;;;0.30;0.30;;;;;;;23.09;53.52;99773.25;4514694;28;20734;-65